sensor_id;sensor_type;location;lat;lon;timestamp;temperature;humidity
39601;DHT22;25297;44.758;11.310;2023-04-12T00:02:23;14.40;81.80
39601;DHT22;25297;44.758;11.310;2023-04-12T00:04:48;14.50;82.10
39601;DHT22;25297;44.758;11.310;2023-04-12T00:07:20;14.40;82.40
39601;DHT22;25297;44.758;11.310;2023-04-12T00:09:46;14.40;82.70
39601;DHT22;25297;44.758;11.310;2023-04-12T00:12:12;14.40;82.90
39601;DHT22;25297;44.758;11.310;2023-04-12T00:14:37;14.40;83.30
39601;DHT22;25297;44.758;11.310;2023-04-12T00:17:03;14.40;83.50
39601;DHT22;25297;44.758;11.310;2023-04-12T00:19:28;14.40;83.80
39601;DHT22;25297;44.758;11.310;2023-04-12T00:21:55;14.50;84.40
39601;DHT22;25297;44.758;11.310;2023-04-12T00:24:21;14.50;85.00
39601;DHT22;25297;44.758;11.310;2023-04-12T00:26:47;14.50;85.40
39601;DHT22;25297;44.758;11.310;2023-04-12T00:29:12;14.50;85.60
39601;DHT22;25297;44.758;11.310;2023-04-12T00:31:38;14.50;85.90
39601;DHT22;25297;44.758;11.310;2023-04-12T00:34:04;14.60;86.10
39601;DHT22;25297;44.758;11.310;2023-04-12T00:36:30;14.60;86.10
39601;DHT22;25297;44.758;11.310;2023-04-12T00:38:56;14.60;86.40
39601;DHT22;25297;44.758;11.310;2023-04-12T00:41:21;14.60;86.80
39601;DHT22;25297;44.758;11.310;2023-04-12T00:43:48;14.70;87.40
39601;DHT22;25297;44.758;11.310;2023-04-12T00:46:14;14.70;87.60
39601;DHT22;25297;44.758;11.310;2023-04-12T00:48:42;14.70;87.90
39601;DHT22;25297;44.758;11.310;2023-04-12T00:51:09;14.70;87.80
39601;DHT22;25297;44.758;11.310;2023-04-12T00:53:35;14.70;87.60
39601;DHT22;25297;44.758;11.310;2023-04-12T00:56:03;14.70;87.30
39601;DHT22;25297;44.758;11.310;2023-04-12T00:58:28;14.60;87.40
39601;DHT22;25297;44.758;11.310;2023-04-12T01:00:54;14.60;87.60
39601;DHT22;25297;44.758;11.310;2023-04-12T01:03:21;14.60;87.80
39601;DHT22;25297;44.758;11.310;2023-04-12T01:06:09;14.60;88.10
39601;DHT22;25297;44.758;11.310;2023-04-12T01:11:32;14.60;87.80
39601;DHT22;25297;44.758;11.310;2023-04-12T01:16:49;14.50;88.10
39601;DHT22;25297;44.758;11.310;2023-04-12T01:22:40;14.40;88.60
39601;DHT22;25297;44.758;11.310;2023-04-12T01:28:01;14.30;88.80
39601;DHT22;25297;44.758;11.310;2023-04-12T01:30:28;14.30;89.10
39601;DHT22;25297;44.758;11.310;2023-04-12T01:32:55;14.20;89.50
39601;DHT22;25297;44.758;11.310;2023-04-12T01:35:26;14.20;90.00
39601;DHT22;25297;44.758;11.310;2023-04-12T01:37:52;14.10;90.10
39601;DHT22;25297;44.758;11.310;2023-04-12T01:40:19;14.10;90.30
39601;DHT22;25297;44.758;11.310;2023-04-12T01:42:45;14.00;90.40
39601;DHT22;25297;44.758;11.310;2023-04-12T01:45:11;14.00;90.80
39601;DHT22;25297;44.758;11.310;2023-04-12T01:47:37;14.00;90.60
39601;DHT22;25297;44.758;11.310;2023-04-12T01:52:39;14.00;90.70
39601;DHT22;25297;44.758;11.310;2023-04-12T01:55:06;14.00;90.80
39601;DHT22;25297;44.758;11.310;2023-04-12T01:57:34;14.00;91.00
39601;DHT22;25297;44.758;11.310;2023-04-12T02:00:02;14.00;91.20
39601;DHT22;25297;44.758;11.310;2023-04-12T02:02:31;14.00;91.20
39601;DHT22;25297;44.758;11.310;2023-04-12T02:04:57;14.00;91.20
39601;DHT22;25297;44.758;11.310;2023-04-12T02:07:24;14.00;91.40
39601;DHT22;25297;44.758;11.310;2023-04-12T02:09:50;14.00;91.50
39601;DHT22;25297;44.758;11.310;2023-04-12T02:12:16;14.10;91.60
39601;DHT22;25297;44.758;11.310;2023-04-12T02:14:41;14.10;91.60
39601;DHT22;25297;44.758;11.310;2023-04-12T02:17:07;14.10;91.60
39601;DHT22;25297;44.758;11.310;2023-04-12T02:19:32;14.10;91.70
39601;DHT22;25297;44.758;11.310;2023-04-12T02:21:58;14.10;91.80
39601;DHT22;25297;44.758;11.310;2023-04-12T02:24:24;14.10;92.10
39601;DHT22;25297;44.758;11.310;2023-04-12T02:26:49;14.10;92.10
39601;DHT22;25297;44.758;11.310;2023-04-12T02:29:15;14.10;92.30
39601;DHT22;25297;44.758;11.310;2023-04-12T02:31:41;14.20;92.60
39601;DHT22;25297;44.758;11.310;2023-04-12T02:34:07;14.20;92.50
39601;DHT22;25297;44.758;11.310;2023-04-12T02:36:32;14.20;92.50
39601;DHT22;25297;44.758;11.310;2023-04-12T02:38:59;14.20;92.60
39601;DHT22;25297;44.758;11.310;2023-04-12T02:41:25;14.20;92.80
39601;DHT22;25297;44.758;11.310;2023-04-12T02:43:50;14.30;93.00
39601;DHT22;25297;44.758;11.310;2023-04-12T02:46:20;14.30;93.20
39601;DHT22;25297;44.758;11.310;2023-04-12T02:48:47;14.40;93.30
39601;DHT22;25297;44.758;11.310;2023-04-12T02:51:13;14.40;93.30
39601;DHT22;25297;44.758;11.310;2023-04-12T02:53:39;14.40;93.30
39601;DHT22;25297;44.758;11.310;2023-04-12T02:56:05;14.40;93.10
39601;DHT22;25297;44.758;11.310;2023-04-12T02:58:31;14.40;93.10
39601;DHT22;25297;44.758;11.310;2023-04-12T03:01:00;14.50;93.20
39601;DHT22;25297;44.758;11.310;2023-04-12T03:03:26;14.50;93.30
39601;DHT22;25297;44.758;11.310;2023-04-12T03:05:56;14.50;93.30
39601;DHT22;25297;44.758;11.310;2023-04-12T03:08:22;14.50;93.30
39601;DHT22;25297;44.758;11.310;2023-04-12T03:10:48;14.50;93.30
39601;DHT22;25297;44.758;11.310;2023-04-12T03:13:14;14.60;93.40
39601;DHT22;25297;44.758;11.310;2023-04-12T03:15:40;14.60;93.50
39601;DHT22;25297;44.758;11.310;2023-04-12T03:18:08;14.60;93.70
39601;DHT22;25297;44.758;11.310;2023-04-12T03:20:34;14.60;93.80
39601;DHT22;25297;44.758;11.310;2023-04-12T03:23:00;14.60;93.80
39601;DHT22;25297;44.758;11.310;2023-04-12T03:25:25;14.70;93.80
39601;DHT22;25297;44.758;11.310;2023-04-12T03:27:51;14.70;93.80
39601;DHT22;25297;44.758;11.310;2023-04-12T03:30:17;14.70;93.70
39601;DHT22;25297;44.758;11.310;2023-04-12T03:32:43;14.60;93.70
39601;DHT22;25297;44.758;11.310;2023-04-12T03:35:09;14.60;93.90
39601;DHT22;25297;44.758;11.310;2023-04-12T03:37:35;14.60;94.10
39601;DHT22;25297;44.758;11.310;2023-04-12T03:40:00;14.60;94.50
39601;DHT22;25297;44.758;11.310;2023-04-12T03:42:29;14.60;94.40
39601;DHT22;25297;44.758;11.310;2023-04-12T03:44:55;14.60;94.50
39601;DHT22;25297;44.758;11.310;2023-04-12T03:47:21;14.60;94.80
39601;DHT22;25297;44.758;11.310;2023-04-12T03:49:46;14.70;95.00
39601;DHT22;25297;44.758;11.310;2023-04-12T03:52:12;14.80;95.20
39601;DHT22;25297;44.758;11.310;2023-04-12T03:54:38;14.80;95.20
39601;DHT22;25297;44.758;11.310;2023-04-12T03:57:03;14.80;95.20
39601;DHT22;25297;44.758;11.310;2023-04-12T03:59:29;14.80;95.20
39601;DHT22;25297;44.758;11.310;2023-04-12T04:01:57;14.80;95.30
39601;DHT22;25297;44.758;11.310;2023-04-12T04:04:26;14.80;95.40
39601;DHT22;25297;44.758;11.310;2023-04-12T04:06:52;14.80;95.50
39601;DHT22;25297;44.758;11.310;2023-04-12T04:09:18;14.80;95.60
39601;DHT22;25297;44.758;11.310;2023-04-12T04:11:44;14.80;95.70
39601;DHT22;25297;44.758;11.310;2023-04-12T04:14:09;14.90;95.70
39601;DHT22;25297;44.758;11.310;2023-04-12T04:16:35;14.80;95.80
39601;DHT22;25297;44.758;11.310;2023-04-12T04:19:01;14.90;95.80
39601;DHT22;25297;44.758;11.310;2023-04-12T04:21:26;14.90;95.80
39601;DHT22;25297;44.758;11.310;2023-04-12T04:23:55;14.90;95.80
39601;DHT22;25297;44.758;11.310;2023-04-12T04:26:22;14.90;95.70
39601;DHT22;25297;44.758;11.310;2023-04-12T04:28:56;14.90;95.60
39601;DHT22;25297;44.758;11.310;2023-04-12T04:31:27;14.90;95.50
39601;DHT22;25297;44.758;11.310;2023-04-12T04:34:02;14.90;95.50
39601;DHT22;25297;44.758;11.310;2023-04-12T04:36:33;14.90;95.40
39601;DHT22;25297;44.758;11.310;2023-04-12T04:39:00;14.90;95.30
39601;DHT22;25297;44.758;11.310;2023-04-12T04:41:26;14.90;95.40
39601;DHT22;25297;44.758;11.310;2023-04-12T04:43:52;14.80;95.50
39601;DHT22;25297;44.758;11.310;2023-04-12T04:46:20;14.80;95.60
39601;DHT22;25297;44.758;11.310;2023-04-12T04:48:49;14.80;95.70
39601;DHT22;25297;44.758;11.310;2023-04-12T04:51:16;14.90;95.80
39601;DHT22;25297;44.758;11.310;2023-04-12T04:53:42;14.90;95.80
39601;DHT22;25297;44.758;11.310;2023-04-12T04:56:08;14.90;95.90
39601;DHT22;25297;44.758;11.310;2023-04-12T04:58:35;14.90;95.90
39601;DHT22;25297;44.758;11.310;2023-04-12T05:01:00;14.90;95.90
39601;DHT22;25297;44.758;11.310;2023-04-12T05:03:26;14.90;95.90
39601;DHT22;25297;44.758;11.310;2023-04-12T05:05:55;14.90;95.90
39601;DHT22;25297;44.758;11.310;2023-04-12T05:08:21;15.00;96.00
39601;DHT22;25297;44.758;11.310;2023-04-12T05:10:55;14.90;96.10
39601;DHT22;25297;44.758;11.310;2023-04-12T05:13:20;14.90;96.20
39601;DHT22;25297;44.758;11.310;2023-04-12T05:15:46;15.00;96.30
39601;DHT22;25297;44.758;11.310;2023-04-12T05:18:13;15.00;96.30
39601;DHT22;25297;44.758;11.310;2023-04-12T05:20:38;15.10;96.30
39601;DHT22;25297;44.758;11.310;2023-04-12T05:23:04;15.00;96.30
39601;DHT22;25297;44.758;11.310;2023-04-12T05:25:30;15.10;96.50
39601;DHT22;25297;44.758;11.310;2023-04-12T05:27:55;15.10;96.60
39601;DHT22;25297;44.758;11.310;2023-04-12T05:30:21;15.10;96.60
39601;DHT22;25297;44.758;11.310;2023-04-12T05:32:46;15.20;96.70
39601;DHT22;25297;44.758;11.310;2023-04-12T05:35:12;15.20;96.90
39601;DHT22;25297;44.758;11.310;2023-04-12T05:37:38;15.20;96.80
39601;DHT22;25297;44.758;11.310;2023-04-12T05:40:04;15.20;96.80
39601;DHT22;25297;44.758;11.310;2023-04-12T05:42:37;15.20;97.00
39601;DHT22;25297;44.758;11.310;2023-04-12T05:45:03;15.30;97.10
39601;DHT22;25297;44.758;11.310;2023-04-12T05:47:29;15.30;96.90
39601;DHT22;25297;44.758;11.310;2023-04-12T05:49:55;15.30;96.90
39601;DHT22;25297;44.758;11.310;2023-04-12T05:52:21;15.40;97.00
39601;DHT22;25297;44.758;11.310;2023-04-12T05:54:47;15.40;97.00
39601;DHT22;25297;44.758;11.310;2023-04-12T05:57:13;15.40;97.00
39601;DHT22;25297;44.758;11.310;2023-04-12T05:59:39;15.50;97.10
39601;DHT22;25297;44.758;11.310;2023-04-12T06:02:05;15.50;97.10
39601;DHT22;25297;44.758;11.310;2023-04-12T06:04:31;15.60;96.80
39601;DHT22;25297;44.758;11.310;2023-04-12T06:06:57;15.60;96.50
39601;DHT22;25297;44.758;11.310;2023-04-12T06:09:23;15.60;96.30
39601;DHT22;25297;44.758;11.310;2023-04-12T06:11:48;15.70;96.30
39601;DHT22;25297;44.758;11.310;2023-04-12T06:14:15;15.70;96.20
39601;DHT22;25297;44.758;11.310;2023-04-12T06:16:40;15.80;96.40
39601;DHT22;25297;44.758;11.310;2023-04-12T06:19:06;15.80;96.40
39601;DHT22;25297;44.758;11.310;2023-04-12T06:21:32;15.80;96.30
39601;DHT22;25297;44.758;11.310;2023-04-12T06:23:57;15.90;96.40
39601;DHT22;25297;44.758;11.310;2023-04-12T06:26:23;15.90;96.20
39601;DHT22;25297;44.758;11.310;2023-04-12T06:28:48;16.00;96.10
39601;DHT22;25297;44.758;11.310;2023-04-12T06:31:15;16.00;95.80
39601;DHT22;25297;44.758;11.310;2023-04-12T06:33:41;16.00;95.70
39601;DHT22;25297;44.758;11.310;2023-04-12T06:36:07;16.10;95.70
39601;DHT22;25297;44.758;11.310;2023-04-12T06:38:33;16.10;95.90
39601;DHT22;25297;44.758;11.310;2023-04-12T06:40:59;16.10;95.80
39601;DHT22;25297;44.758;11.310;2023-04-12T06:43:25;16.20;95.70
39601;DHT22;25297;44.758;11.310;2023-04-12T06:45:51;16.20;95.80
39601;DHT22;25297;44.758;11.310;2023-04-12T06:48:17;16.20;95.90
39601;DHT22;25297;44.758;11.310;2023-04-12T06:50:46;16.30;96.10
39601;DHT22;25297;44.758;11.310;2023-04-12T06:53:11;16.30;96.10
39601;DHT22;25297;44.758;11.310;2023-04-12T06:55:40;16.30;96.20
39601;DHT22;25297;44.758;11.310;2023-04-12T06:58:06;16.40;96.20
39601;DHT22;25297;44.758;11.310;2023-04-12T07:00:31;16.50;96.20
39601;DHT22;25297;44.758;11.310;2023-04-12T07:02:57;16.50;96.20
39601;DHT22;25297;44.758;11.310;2023-04-12T07:05:22;16.60;96.20
39601;DHT22;25297;44.758;11.310;2023-04-12T07:07:48;16.60;96.00
39601;DHT22;25297;44.758;11.310;2023-04-12T07:10:14;16.60;95.90
39601;DHT22;25297;44.758;11.310;2023-04-12T07:12:39;16.60;95.80
39601;DHT22;25297;44.758;11.310;2023-04-12T07:15:07;16.70;95.90
39601;DHT22;25297;44.758;11.310;2023-04-12T07:17:32;16.70;96.00
39601;DHT22;25297;44.758;11.310;2023-04-12T07:19:58;16.70;96.00
39601;DHT22;25297;44.758;11.310;2023-04-12T07:22:24;16.80;96.10
39601;DHT22;25297;44.758;11.310;2023-04-12T07:24:50;16.80;96.10
39601;DHT22;25297;44.758;11.310;2023-04-12T07:27:15;16.90;96.00
39601;DHT22;25297;44.758;11.310;2023-04-12T07:29:41;16.90;95.80
39601;DHT22;25297;44.758;11.310;2023-04-12T07:32:08;17.00;95.80
39601;DHT22;25297;44.758;11.310;2023-04-12T07:34:34;17.00;95.60
39601;DHT22;25297;44.758;11.310;2023-04-12T07:37:01;17.00;95.50
39601;DHT22;25297;44.758;11.310;2023-04-12T07:39:27;17.00;95.50
39601;DHT22;25297;44.758;11.310;2023-04-12T07:41:54;17.10;95.60
39601;DHT22;25297;44.758;11.310;2023-04-12T07:44:20;17.10;95.40
39601;DHT22;25297;44.758;11.310;2023-04-12T07:46:45;17.10;95.40
39601;DHT22;25297;44.758;11.310;2023-04-12T07:49:12;17.10;95.20
39601;DHT22;25297;44.758;11.310;2023-04-12T07:51:37;17.10;95.00
39601;DHT22;25297;44.758;11.310;2023-04-12T07:54:03;17.10;94.90
39601;DHT22;25297;44.758;11.310;2023-04-12T07:56:31;17.10;95.00
39601;DHT22;25297;44.758;11.310;2023-04-12T07:58:57;17.10;94.90
39601;DHT22;25297;44.758;11.310;2023-04-12T08:01:23;17.20;94.90
39601;DHT22;25297;44.758;11.310;2023-04-12T08:03:48;17.20;94.90
39601;DHT22;25297;44.758;11.310;2023-04-12T08:06:14;17.30;94.90
39601;DHT22;25297;44.758;11.310;2023-04-12T08:08:40;17.30;94.50
39601;DHT22;25297;44.758;11.310;2023-04-12T08:11:05;17.30;94.40
39601;DHT22;25297;44.758;11.310;2023-04-12T08:13:32;17.30;94.30
39601;DHT22;25297;44.758;11.310;2023-04-12T08:15:58;17.30;94.50
39601;DHT22;25297;44.758;11.310;2023-04-12T08:18:24;17.30;94.40
39601;DHT22;25297;44.758;11.310;2023-04-12T08:20:49;17.30;94.30
39601;DHT22;25297;44.758;11.310;2023-04-12T08:23:15;17.40;94.50
39601;DHT22;25297;44.758;11.310;2023-04-12T08:25:41;17.40;94.40
39601;DHT22;25297;44.758;11.310;2023-04-12T08:28:07;17.40;94.20
39601;DHT22;25297;44.758;11.310;2023-04-12T08:30:33;17.40;94.10
39601;DHT22;25297;44.758;11.310;2023-04-12T08:32:59;17.40;94.00
39601;DHT22;25297;44.758;11.310;2023-04-12T08:35:25;17.50;93.80
39601;DHT22;25297;44.758;11.310;2023-04-12T08:37:50;17.50;93.70
39601;DHT22;25297;44.758;11.310;2023-04-12T08:40:16;17.50;93.80
39601;DHT22;25297;44.758;11.310;2023-04-12T08:42:42;17.50;93.90
39601;DHT22;25297;44.758;11.310;2023-04-12T08:45:10;17.50;93.70
39601;DHT22;25297;44.758;11.310;2023-04-12T08:47:38;17.50;93.70
39601;DHT22;25297;44.758;11.310;2023-04-12T08:50:05;17.60;93.70
39601;DHT22;25297;44.758;11.310;2023-04-12T08:52:36;17.60;93.70
39601;DHT22;25297;44.758;11.310;2023-04-12T08:55:06;17.70;93.80
39601;DHT22;25297;44.758;11.310;2023-04-12T08:57:34;17.70;93.70
39601;DHT22;25297;44.758;11.310;2023-04-12T09:00:01;17.70;93.70
39601;DHT22;25297;44.758;11.310;2023-04-12T09:02:27;17.70;93.60
39601;DHT22;25297;44.758;11.310;2023-04-12T09:04:55;17.70;93.50
39601;DHT22;25297;44.758;11.310;2023-04-12T09:07:21;17.70;93.60
39601;DHT22;25297;44.758;11.310;2023-04-12T09:09:48;17.80;93.40
39601;DHT22;25297;44.758;11.310;2023-04-12T09:12:14;17.80;93.40
39601;DHT22;25297;44.758;11.310;2023-04-12T09:14:41;17.80;93.50
39601;DHT22;25297;44.758;11.310;2023-04-12T09:17:24;17.80;93.30
39601;DHT22;25297;44.758;11.310;2023-04-12T09:19:51;17.80;93.40
39601;DHT22;25297;44.758;11.310;2023-04-12T09:22:17;17.80;93.50
39601;DHT22;25297;44.758;11.310;2023-04-12T09:24:48;17.90;93.50
39601;DHT22;25297;44.758;11.310;2023-04-12T09:27:15;17.90;93.50
39601;DHT22;25297;44.758;11.310;2023-04-12T09:29:41;18.00;93.60
39601;DHT22;25297;44.758;11.310;2023-04-12T09:32:08;18.00;93.60
39601;DHT22;25297;44.758;11.310;2023-04-12T09:34:35;18.00;93.60
39601;DHT22;25297;44.758;11.310;2023-04-12T09:37:12;18.10;93.60
39601;DHT22;25297;44.758;11.310;2023-04-12T09:39:38;18.10;93.60
39601;DHT22;25297;44.758;11.310;2023-04-12T09:42:08;18.20;93.80
39601;DHT22;25297;44.758;11.310;2023-04-12T09:44:34;18.20;93.90
39601;DHT22;25297;44.758;11.310;2023-04-12T09:47:00;18.20;93.80
39601;DHT22;25297;44.758;11.310;2023-04-12T09:49:37;18.30;93.70
39601;DHT22;25297;44.758;11.310;2023-04-12T09:52:07;18.30;93.60
39601;DHT22;25297;44.758;11.310;2023-04-12T09:54:41;18.30;93.60
39601;DHT22;25297;44.758;11.310;2023-04-12T09:57:08;18.30;93.50
39601;DHT22;25297;44.758;11.310;2023-04-12T09:59:39;18.40;93.40
39601;DHT22;25297;44.758;11.310;2023-04-12T10:02:16;18.40;92.90
39601;DHT22;25297;44.758;11.310;2023-04-12T10:04:42;18.40;92.50
39601;DHT22;25297;44.758;11.310;2023-04-12T10:07:08;18.40;92.40
39601;DHT22;25297;44.758;11.310;2023-04-12T10:09:36;18.40;92.40
39601;DHT22;25297;44.758;11.310;2023-04-12T10:12:02;18.40;92.50
39601;DHT22;25297;44.758;11.310;2023-04-12T10:14:28;18.40;92.80
39601;DHT22;25297;44.758;11.310;2023-04-12T10:17:02;18.40;92.80
39601;DHT22;25297;44.758;11.310;2023-04-12T10:19:29;18.50;92.70
39601;DHT22;25297;44.758;11.310;2023-04-12T10:21:56;18.50;92.70
39601;DHT22;25297;44.758;11.310;2023-04-12T10:24:26;18.50;92.60
39601;DHT22;25297;44.758;11.310;2023-04-12T10:26:55;18.50;92.80
39601;DHT22;25297;44.758;11.310;2023-04-12T10:29:26;18.50;92.90
39601;DHT22;25297;44.758;11.310;2023-04-12T10:31:54;18.60;93.00
39601;DHT22;25297;44.758;11.310;2023-04-12T10:34:29;18.60;93.00
39601;DHT22;25297;44.758;11.310;2023-04-12T10:36:59;18.60;92.90
39601;DHT22;25297;44.758;11.310;2023-04-12T10:39:50;18.70;92.70
39601;DHT22;25297;44.758;11.310;2023-04-12T10:42:24;18.70;92.70
39601;DHT22;25297;44.758;11.310;2023-04-12T10:44:53;18.70;92.50
39601;DHT22;25297;44.758;11.310;2023-04-12T10:47:55;18.80;92.20
39601;DHT22;25297;44.758;11.310;2023-04-12T10:50:25;18.80;91.80
39601;DHT22;25297;44.758;11.310;2023-04-12T10:55:43;18.80;92.00
39601;DHT22;25297;44.758;11.310;2023-04-12T10:58:09;18.80;92.00
39601;DHT22;25297;44.758;11.310;2023-04-12T11:03:20;18.90;91.70
39601;DHT22;25297;44.758;11.310;2023-04-12T11:06:03;18.90;91.70
39601;DHT22;25297;44.758;11.310;2023-04-12T11:08:30;18.90;91.60
39601;DHT22;25297;44.758;11.310;2023-04-12T11:11:02;19.00;91.60
39601;DHT22;25297;44.758;11.310;2023-04-12T11:13:33;19.00;91.80
39601;DHT22;25297;44.758;11.310;2023-04-12T11:16:04;19.00;91.90
39601;DHT22;25297;44.758;11.310;2023-04-12T11:18:32;19.00;91.60
39601;DHT22;25297;44.758;11.310;2023-04-12T11:20:59;19.00;91.60
39601;DHT22;25297;44.758;11.310;2023-04-12T11:23:27;19.00;91.70
39601;DHT22;25297;44.758;11.310;2023-04-12T11:25:53;19.00;91.60
39601;DHT22;25297;44.758;11.310;2023-04-12T11:28:19;19.10;91.60
39601;DHT22;25297;44.758;11.310;2023-04-12T11:31:05;19.10;91.40
39601;DHT22;25297;44.758;11.310;2023-04-12T11:33:38;19.10;91.30
39601;DHT22;25297;44.758;11.310;2023-04-12T11:36:09;19.10;91.20
39601;DHT22;25297;44.758;11.310;2023-04-12T11:38:37;19.10;91.20
39601;DHT22;25297;44.758;11.310;2023-04-12T11:41:04;19.10;91.30
39601;DHT22;25297;44.758;11.310;2023-04-12T11:43:32;19.10;91.70
39601;DHT22;25297;44.758;11.310;2023-04-12T11:45:59;19.10;91.60
39601;DHT22;25297;44.758;11.310;2023-04-12T11:48:25;19.10;91.50
39601;DHT22;25297;44.758;11.310;2023-04-12T11:50:51;19.10;91.50
39601;DHT22;25297;44.758;11.310;2023-04-12T11:53:17;19.10;91.50
39601;DHT22;25297;44.758;11.310;2023-04-12T11:55:50;19.20;91.50
39601;DHT22;25297;44.758;11.310;2023-04-12T11:58:16;19.20;91.40
39601;DHT22;25297;44.758;11.310;2023-04-12T12:00:43;19.20;91.50
39601;DHT22;25297;44.758;11.310;2023-04-12T12:03:10;19.30;91.40
39601;DHT22;25297;44.758;11.310;2023-04-12T12:05:37;19.30;91.20
39601;DHT22;25297;44.758;11.310;2023-04-12T12:08:03;19.30;91.10
39601;DHT22;25297;44.758;11.310;2023-04-12T12:10:33;19.30;91.10
39601;DHT22;25297;44.758;11.310;2023-04-12T12:12:59;19.30;91.00
39601;DHT22;25297;44.758;11.310;2023-04-12T12:15:29;19.30;91.00
39601;DHT22;25297;44.758;11.310;2023-04-12T12:17:55;19.30;91.20
39601;DHT22;25297;44.758;11.310;2023-04-12T12:20:21;19.40;91.30
39601;DHT22;25297;44.758;11.310;2023-04-12T12:22:49;19.40;91.20
39601;DHT22;25297;44.758;11.310;2023-04-12T12:25:17;19.40;91.20
39601;DHT22;25297;44.758;11.310;2023-04-12T12:27:43;19.50;91.00
39601;DHT22;25297;44.758;11.310;2023-04-12T12:30:16;19.50;90.60
39601;DHT22;25297;44.758;11.310;2023-04-12T12:32:43;19.50;90.30
39601;DHT22;25297;44.758;11.310;2023-04-12T12:35:11;19.50;90.40
39601;DHT22;25297;44.758;11.310;2023-04-12T12:37:37;19.50;90.30
39601;DHT22;25297;44.758;11.310;2023-04-12T12:40:13;19.50;90.20
39601;DHT22;25297;44.758;11.310;2023-04-12T12:42:47;19.50;90.20
39601;DHT22;25297;44.758;11.310;2023-04-12T12:45:15;19.50;90.20
39601;DHT22;25297;44.758;11.310;2023-04-12T12:48:01;19.50;90.00
39601;DHT22;25297;44.758;11.310;2023-04-12T12:50:31;19.60;90.00
39601;DHT22;25297;44.758;11.310;2023-04-12T12:52:58;19.60;90.00
39601;DHT22;25297;44.758;11.310;2023-04-12T12:55:28;19.60;90.00
39601;DHT22;25297;44.758;11.310;2023-04-12T12:57:56;19.60;90.10
39601;DHT22;25297;44.758;11.310;2023-04-12T13:00:23;19.70;90.30
39601;DHT22;25297;44.758;11.310;2023-04-12T13:02:50;19.70;90.20
39601;DHT22;25297;44.758;11.310;2023-04-12T13:05:16;19.70;90.10
39601;DHT22;25297;44.758;11.310;2023-04-12T13:07:42;19.80;90.20
39601;DHT22;25297;44.758;11.310;2023-04-12T13:10:09;19.80;90.20
39601;DHT22;25297;44.758;11.310;2023-04-12T13:12:35;19.80;90.00
39601;DHT22;25297;44.758;11.310;2023-04-12T13:15:00;19.80;90.00
39601;DHT22;25297;44.758;11.310;2023-04-12T13:17:27;19.90;89.50
39601;DHT22;25297;44.758;11.310;2023-04-12T13:19:53;19.80;88.90
39601;DHT22;25297;44.758;11.310;2023-04-12T13:22:19;19.80;88.90
39601;DHT22;25297;44.758;11.310;2023-04-12T13:24:44;19.80;89.00
39601;DHT22;25297;44.758;11.310;2023-04-12T13:27:12;19.80;88.80
39601;DHT22;25297;44.758;11.310;2023-04-12T13:29:39;19.80;88.80
39601;DHT22;25297;44.758;11.310;2023-04-12T13:32:05;19.80;88.50
39601;DHT22;25297;44.758;11.310;2023-04-12T13:34:31;19.70;88.50
39601;DHT22;25297;44.758;11.310;2023-04-12T13:36:57;19.70;88.30
39601;DHT22;25297;44.758;11.310;2023-04-12T13:39:23;19.70;88.80
39601;DHT22;25297;44.758;11.310;2023-04-12T13:41:49;19.70;89.50
39601;DHT22;25297;44.758;11.310;2023-04-12T13:44:15;19.70;89.50
39601;DHT22;25297;44.758;11.310;2023-04-12T13:46:41;19.80;89.20
39601;DHT22;25297;44.758;11.310;2023-04-12T13:49:06;19.70;88.50
39601;DHT22;25297;44.758;11.310;2023-04-12T13:51:32;19.80;88.60
39601;DHT22;25297;44.758;11.310;2023-04-12T13:53:59;19.80;88.50
39601;DHT22;25297;44.758;11.310;2023-04-12T13:56:25;19.80;88.80
39601;DHT22;25297;44.758;11.310;2023-04-12T13:58:50;19.70;88.90
39601;DHT22;25297;44.758;11.310;2023-04-12T14:01:16;19.80;88.70
39601;DHT22;25297;44.758;11.310;2023-04-12T14:03:42;19.70;88.30
39601;DHT22;25297;44.758;11.310;2023-04-12T14:06:08;19.70;88.20
39601;DHT22;25297;44.758;11.310;2023-04-12T14:08:34;19.70;88.10
39601;DHT22;25297;44.758;11.310;2023-04-12T14:11:01;19.80;88.30
39601;DHT22;25297;44.758;11.310;2023-04-12T14:13:27;19.70;88.30
39601;DHT22;25297;44.758;11.310;2023-04-12T14:15:53;19.70;88.10
39601;DHT22;25297;44.758;11.310;2023-04-12T14:18:19;19.70;87.80
39601;DHT22;25297;44.758;11.310;2023-04-12T14:20:48;19.80;87.80
39601;DHT22;25297;44.758;11.310;2023-04-12T14:23:17;19.80;88.00
39601;DHT22;25297;44.758;11.310;2023-04-12T14:25:43;19.80;88.20
39601;DHT22;25297;44.758;11.310;2023-04-12T14:28:09;19.80;88.30
39601;DHT22;25297;44.758;11.310;2023-04-12T14:30:35;19.80;88.60
39601;DHT22;25297;44.758;11.310;2023-04-12T14:33:00;19.80;88.50
39601;DHT22;25297;44.758;11.310;2023-04-12T14:35:26;19.80;88.70
39601;DHT22;25297;44.758;11.310;2023-04-12T14:37:52;19.80;88.70
39601;DHT22;25297;44.758;11.310;2023-04-12T14:40:17;19.70;88.70
39601;DHT22;25297;44.758;11.310;2023-04-12T14:42:43;19.70;88.50
39601;DHT22;25297;44.758;11.310;2023-04-12T14:45:10;19.80;88.60
39601;DHT22;25297;44.758;11.310;2023-04-12T14:47:36;19.80;88.20
39601;DHT22;25297;44.758;11.310;2023-04-12T14:50:02;19.80;88.40
39601;DHT22;25297;44.758;11.310;2023-04-12T14:52:28;19.70;88.00
39601;DHT22;25297;44.758;11.310;2023-04-12T14:54:54;19.70;87.70
39601;DHT22;25297;44.758;11.310;2023-04-12T14:57:19;19.70;88.00
39601;DHT22;25297;44.758;11.310;2023-04-12T14:59:45;19.70;88.20
39601;DHT22;25297;44.758;11.310;2023-04-12T15:02:10;19.70;88.20
39601;DHT22;25297;44.758;11.310;2023-04-12T15:04:36;19.70;88.10
39601;DHT22;25297;44.758;11.310;2023-04-12T15:07:02;19.70;87.90
39601;DHT22;25297;44.758;11.310;2023-04-12T15:09:28;19.60;87.60
39601;DHT22;25297;44.758;11.310;2023-04-12T15:11:53;19.70;87.90
39601;DHT22;25297;44.758;11.310;2023-04-12T15:14:26;19.60;88.10
39601;DHT22;25297;44.758;11.310;2023-04-12T15:16:52;19.60;87.80
39601;DHT22;25297;44.758;11.310;2023-04-12T15:19:19;19.60;87.60
39601;DHT22;25297;44.758;11.310;2023-04-12T15:21:47;19.60;87.60
39601;DHT22;25297;44.758;11.310;2023-04-12T15:24:18;19.60;87.80
39601;DHT22;25297;44.758;11.310;2023-04-12T15:26:46;19.60;87.90
39601;DHT22;25297;44.758;11.310;2023-04-12T15:29:14;19.60;87.80
39601;DHT22;25297;44.758;11.310;2023-04-12T15:31:40;19.60;87.90
39601;DHT22;25297;44.758;11.310;2023-04-12T15:34:06;19.60;87.90
39601;DHT22;25297;44.758;11.310;2023-04-12T15:36:31;19.60;87.80